Time;durP1;ratioP1;P1;durP2;ratioP2;P2;SDS_P1;SDS_P2;PMS_P1;PMS_P2;Temp;Humidity;BMP_temperature;BMP_pressure;BME280_temperature;BME280_humidity;BME280_pressure;Samples;Min_cycle;Max_cycle;Signal;HPM_P1;HPM_P2
2022/07/18 00:01:06;;;;;;;4.50;2.00;;;;;;;22.37;35.02;101272.41;4131784;28;20489;-71
2022/07/18 00:03:09;;;;;;;3.42;2.05;;;;;;;22.34;34.88;101271.59;4130967;28;20408;-70
2022/07/18 00:05:12;;;;;;;5.20;2.05;;;;;;;22.25;34.94;101268.22;4131969;28;20039;-70
2022/07/18 00:07:15;;;;;;;4.50;2.20;;;;;;;22.19;35.10;101280.72;4131850;28;20510;-70
2022/07/18 00:09:19;;;;;;;4.47;2.10;;;;;;;22.11;35.52;101280.91;4130383;28;20042;-70
2022/07/18 00:11:22;;;;;;;3.38;2.08;;;;;;;22.07;35.63;101279.19;4131615;28;20449;-70
2022/07/18 00:13:27;;;;;;;3.40;1.90;;;;;;;22.08;35.66;101280.97;4130817;28;20125;-70
2022/07/18 00:15:29;;;;;;;;;;;;;;;21.93;35.73;101283.00;4130868;28;20520;-70
2022/07/18 00:17:32;;;;;;;5.72;2.50;;;;;;;21.99;35.86;101286.41;4131787;28;20004;-71
2022/07/18 00:19:36;;;;;;;5.75;1.77;;;;;;;21.96;36.78;101277.66;4130335;28;20070;-71
2022/07/18 00:21:39;;;;;;;4.32;2.15;;;;;;;21.97;36.83;101278.50;4113628;28;20142;-71
2022/07/18 00:23:42;;;;;;;4.03;2.30;;;;;;;21.96;36.83;101279.41;4131560;28;20501;-71
2022/07/18 00:25:45;;;;;;;5.57;2.75;;;;;;;21.91;37.10;101279.50;4131543;28;20042;-71
2022/07/18 00:27:48;;;;;;;6.00;2.28;;;;;;;21.89;37.52;101277.78;4131574;28;20050;-70
2022/07/18 00:29:53;;;;;;;8.23;2.35;;;;;;;21.89;37.50;101281.31;4131712;28;20138;-72
2022/07/18 00:31:56;;;;;;;2.88;2.03;;;;;;;21.82;37.31;101278.84;4130793;28;20034;-70
2022/07/18 00:33:59;;;;;;;7.65;2.30;;;;;;;21.75;37.10;101283.34;4131582;28;20141;-71
2022/07/18 00:36:02;;;;;;;6.03;2.22;;;;;;;21.74;37.12;101273.66;4130485;28;20047;-70
2022/07/18 00:38:05;;;;;;;4.20;1.60;;;;;;;21.68;38.46;101279.09;4130345;28;20136;-70
2022/07/18 00:40:09;;;;;;;3.65;1.80;;;;;;;21.64;38.94;101277.38;4131426;28;20057;-70
2022/07/18 00:42:12;;;;;;;;;;;;;;;21.45;38.80;101277.72;4133031;28;20484;-70
2022/07/18 00:44:19;;;;;;;4.45;2.00;;;;;;;21.52;38.55;101283.78;4134691;28;19922;-70
2022/07/18 00:46:24;;;;;;;5.78;1.98;;;;;;;21.54;38.08;101280.22;4134871;28;20517;-70
2022/07/18 00:48:27;;;;;;;6.57;2.28;;;;;;;21.54;37.86;101274.91;4133735;28;20062;-72
2022/07/18 00:50:30;;;;;;;5.80;2.15;;;;;;;21.50;38.23;101275.84;4134625;28;20046;-71
2022/07/18 00:52:33;;;;;;;5.60;2.33;;;;;;;21.49;37.98;101282.03;4133885;28;20049;-70
2022/07/18 00:54:36;;;;;;;4.82;2.13;;;;;;;21.44;38.14;101279.47;4134466;28;20526;-70
2022/07/18 00:56:39;;;;;;;4.10;1.90;;;;;;;21.43;38.78;101284.78;4134506;28;20038;-70
2022/07/18 00:58:43;;;;;;;6.57;2.63;;;;;;;21.40;38.99;101280.41;4134553;28;20112;-70
2022/07/18 01:03:08;;;;;;;3.65;1.83;;;;;;;21.36;38.17;101273.47;4133672;28;20101;-70
2022/07/18 01:05:11;;;;;;;5.50;2.30;;;;;;;21.36;38.09;101276.09;4134086;28;20046;-71
2022/07/18 01:07:14;;;;;;;4.78;2.58;;;;;;;21.35;38.42;101269.06;4134356;28;20108;-70
2022/07/18 01:09:18;;;;;;;11.65;2.97;;;;;;;21.32;38.39;101276.16;4134427;28;20046;-70
2022/07/18 01:11:21;;;;;;;;;;;;;;;21.09;38.80;101272.16;4133379;28;20049;-70
2022/07/18 01:13:24;;;;;;;4.32;2.22;;;;;;;21.12;38.76;101271.22;4133380;28;20360;-70
2022/07/18 01:15:28;;;;;;;7.68;2.40;;;;;;;21.16;38.77;101272.91;4134269;28;20038;-70
2022/07/18 01:17:31;;;;;;;4.13;1.87;;;;;;;21.08;38.90;101276.56;4134351;28;20045;-69
2022/07/18 01:19:38;;;;;;;4.00;2.22;;;;;;;21.06;39.11;101270.41;4133082;28;20574;-70
2022/07/18 01:21:42;;;;;;;6.95;2.40;;;;;;;21.04;38.71;101284.56;4132289;28;20327;-70
2022/07/18 01:23:45;;;;;;;7.93;2.90;;;;;;;21.00;38.86;101277.59;4132921;28;20047;-70
2022/07/18 01:25:49;;;;;;;3.58;1.73;;;;;;;21.04;38.52;101274.88;4134097;28;20133;-70
2022/07/18 01:27:51;;;;;;;6.00;2.63;;;;;;;21.03;38.34;101273.13;4134098;28;20475;-69
2022/07/18 01:29:54;;;;;;;3.95;2.08;;;;;;;21.00;38.94;101283.75;4134042;28;20133;-70
2022/07/18 01:32:03;;;;;;;4.97;2.10;;;;;;;21.01;39.24;101280.22;4133207;28;20137;-70
2022/07/18 01:34:06;;;;;;;5.55;2.30;;;;;;;20.98;38.94;101274.94;4133933;28;20057;-70
2022/07/18 01:36:09;;;;;;;3.85;1.90;;;;;;;20.93;39.25;101282.97;4133915;28;20042;-69
2022/07/18 01:38:14;;;;;;;6.00;2.58;;;;;;;20.89;39.30;101289.19;4133952;28;20576;-70
2022/07/18 01:40:17;;;;;;;7.10;2.95;;;;;;;20.85;39.50;101290.16;4134051;28;20130;-69
2022/07/18 01:42:19;;;;;;;4.70;2.40;;;;;;;20.81;39.20;101283.16;4131914;28;20142;-70
2022/07/18 01:44:22;;;;;;;6.90;2.90;;;;;;;20.78;39.44;101288.50;4133769;28;20137;-69
2022/07/18 01:46:25;;;;;;;6.35;2.20;;;;;;;20.73;39.24;101283.28;4134027;28;20424;-69
2022/07/18 01:48:29;;;;;;;6.97;2.50;;;;;;;20.71;39.60;101289.47;4133712;28;20047;-70
2022/07/18 01:50:31;;;;;;;3.35;1.90;;;;;;;20.67;39.42;101282.50;4133636;28;20039;-70
2022/07/18 01:52:34;;;;;;;7.32;2.70;;;;;;;20.64;39.67;101274.56;4132871;28;20045;-70
2022/07/18 01:54:39;;;;;;;8.77;2.17;;;;;;;20.65;39.85;101286.91;4131642;28;20415;-69
2022/07/18 01:56:41;;;;;;;;;;;;;;;20.42;40.28;101284.56;4134107;28;20056;-69
2022/07/18 01:58:44;;;;;;;5.72;2.00;;;;;;;20.44;39.95;101285.41;4133596;28;19925;-70
2022/07/18 02:00:47;;;;;;;4.57;1.98;;;;;;;20.44;39.83;101288.06;4133807;28;20038;-69
2022/07/18 02:02:50;;;;;;;5.15;2.22;;;;;;;20.48;40.07;101284.47;4115414;28;20118;-69
2022/07/18 02:05:03;;;;;;;5.75;2.33;;;;;;;20.48;40.11;101281.84;4132340;28;20038;-69
2022/07/18 02:07:06;;;;;;;4.38;2.10;;;;;;;20.48;40.70;101282.69;4133524;28;20069;-69
2022/07/18 02:09:10;;;;;;;7.55;3.10;;;;;;;20.46;41.23;101278.31;4132132;28;20508;-69
2022/07/18 02:11:14;;;;;;;8.30;2.38;;;;;;;20.44;41.21;101278.34;4133385;28;20042;-69
2022/07/18 02:13:19;;;;;;;6.18;1.92;;;;;;;20.40;41.55;101274.91;4132566;28;20089;-69
2022/07/18 02:15:23;;;;;;;4.75;2.28;;;;;;;20.38;42.03;101283.72;4133323;28;20054;-69
2022/07/18 02:17:26;;;;;;;4.07;2.42;;;;;;;20.37;42.74;101276.69;4132074;28;20042;-69
2022/07/18 02:19:29;;;;;;;5.10;1.98;;;;;;;20.31;43.20;101279.41;4133296;28;20389;-69
2022/07/18 02:21:32;;;;;;;2.92;1.55;;;;;;;20.31;43.23;101271.50;4133076;28;20042;-69
2022/07/18 02:23:35;;;;;;;5.57;2.03;;;;;;;20.27;43.94;101280.34;4131511;28;20135;-70
2022/07/18 02:25:38;;;;;;;4.70;2.13;;;;;;;20.20;44.15;101277.78;4133214;28;20042;-69
2022/07/18 02:27:43;;;;;;;5.97;1.97;;;;;;;20.20;44.41;101288.34;4133243;28;20038;-69
2022/07/18 02:29:46;;;;;;;;;;;;;;;20.04;45.16;101278.88;4133632;28;20046;-69
2022/07/18 02:31:49;;;;;;;6.50;2.03;;;;;;;20.07;44.87;101283.25;4131057;28;19922;-69
2022/07/18 02:33:52;;;;;;;4.75;2.10;;;;;;;20.08;45.47;101279.69;4131804;28;20042;-69
2022/07/18 02:35:55;;;;;;;4.22;1.95;;;;;;;20.04;45.50;101284.16;4131816;28;20140;-69
2022/07/18 02:37:58;;;;;;;2.97;1.77;;;;;;;20.04;45.70;101281.53;4131747;28;20465;-69
2022/07/18 02:40:01;;;;;;;3.00;1.67;;;;;;;20.04;45.64;101279.75;4132991;28;20465;-69
2022/07/18 02:42:05;;;;;;;6.03;1.65;;;;;;;20.06;45.60;101277.09;4132248;28;20049;-69
2022/07/18 02:44:09;;;;;;;5.10;2.13;;;;;;;20.04;45.66;101285.03;4147830;28;20446;-69
2022/07/18 02:46:12;;;;;;;5.95;2.40;;;;;;;19.98;45.78;101282.47;4133115;28;20500;-69
2022/07/18 02:48:15;;;;;;;4.05;1.95;;;;;;;20.00;46.10;101279.81;4132863;28;20050;-69
2022/07/18 02:50:18;;;;;;;6.18;2.50;;;;;;;19.99;46.41;101283.31;4132884;28;20039;-69
2022/07/18 02:52:21;;;;;;;5.78;1.90;;;;;;;19.94;46.31;101271.97;4131961;28;20495;-69
2022/07/18 02:54:25;;;;;;;4.10;2.50;;;;;;;19.90;46.29;101275.53;4132827;28;20440;-69
2022/07/18 02:56:28;;;;;;;4.30;1.80;;;;;;;19.86;45.95;101270.28;4132772;28;20038;-69
2022/07/18 02:58:32;;;;;;;7.35;1.95;;;;;;;19.84;46.02;101274.72;4132743;28;20048;-69
2022/07/18 03:00:36;;;;;;;4.32;1.90;;;;;;;19.81;46.43;101272.09;4132699;28;20500;-69
2022/07/18 03:02:39;;;;;;;3.85;2.03;;;;;;;19.77;46.14;101274.75;4130705;28;20042;-69
2022/07/18 03:04:42;;;;;;;4.45;1.98;;;;;;;19.78;46.62;101276.50;4131970;28;20045;-69
2022/07/18 03:06:45;;;;;;;5.35;1.85;;;;;;;19.76;46.69;101273.88;4132174;28;20512;-69
2022/07/18 03:08:48;;;;;;;5.43;1.77;;;;;;;19.76;46.78;101273.88;4132607;28;20389;-69
2022/07/18 03:10:51;;;;;;;4.53;2.10;;;;;;;19.72;47.31;101269.53;4131320;28;20048;-69
2022/07/18 03:12:54;;;;;;;3.95;1.73;;;;;;;19.70;47.48;101268.69;4130456;28;20489;-69
2022/07/18 03:14:57;;;;;;;5.03;1.60;;;;;;;19.72;47.25;101266.88;4132441;28;20054;-69
2022/07/18 03:17:01;;;;;;;7.13;2.15;;;;;;;19.72;47.44;101272.16;4132335;28;20489;-69
2022/07/18 03:19:04;;;;;;;7.85;2.33;;;;;;;19.69;47.76;101273.06;4132388;28;20147;-69
2022/07/18 03:21:07;;;;;;;6.32;1.92;;;;;;;19.66;48.12;101272.25;4132345;28;20042;-70
2022/07/18 03:23:10;;;;;;;6.20;1.80;;;;;;;19.63;48.08;101274.91;4130433;28;20049;-71
2022/07/18 03:25:13;;;;;;;7.70;2.22;;;;;;;19.51;49.00;101270.63;4132455;28;20034;-70
2022/07/18 03:27:18;;;;;;;5.53;2.03;;;;;;;19.46;48.96;101270.66;4132214;28;20049;-70
2022/07/18 03:29:21;;;;;;;5.35;2.30;;;;;;;19.46;49.21;101275.06;4130915;28;20054;-69
2022/07/18 03:31:24;;;;;;;4.95;2.05;;;;;;;19.49;49.36;101270.66;4132204;28;20046;-70
2022/07/18 03:33:28;;;;;;;3.95;2.00;;;;;;;19.55;48.90;101272.31;4131280;28;20399;-70
2022/07/18 03:35:31;;;;;;;6.47;2.03;;;;;;;19.54;49.14;101273.25;4130895;28;20130;-70
2022/07/18 03:37:34;;;;;;;5.60;2.03;;;;;;;19.53;49.29;101277.63;4130801;28;20046;-70
2022/07/18 03:39:37;;;;;;;5.45;2.08;;;;;;;19.51;49.55;101276.78;4130906;28;20038;-69
2022/07/18 03:41:40;;;;;;;5.03;2.42;;;;;;;19.42;51.06;101274.22;4131375;28;20038;-69
2022/07/18 03:43:43;;;;;;;4.75;2.72;;;;;;;19.41;50.72;101276.88;4131814;28;20081;-70
2022/07/18 03:45:47;;;;;;;5.68;1.95;;;;;;;19.38;51.47;101282.16;4130725;28;20149;-69
2022/07/18 03:47:50;;;;;;;4.43;1.85;;;;;;;19.37;51.88;101278.66;4130789;28;20042;-69
2022/07/18 03:49:55;;;;;;;9.63;2.63;;;;;;;19.40;51.87;101286.53;4132073;28;20046;-69
2022/07/18 03:51:57;;;;;;;5.05;2.75;;;;;;;19.40;51.35;101285.69;4129885;28;20042;-69
2022/07/18 03:54:00;;;;;;;6.40;3.03;;;;;;;19.43;51.58;101286.50;4131896;28;20034;-69
2022/07/18 03:56:04;;;;;;;8.05;2.30;;;;;;;19.43;51.47;101283.88;4131834;28;20133;-69
2022/07/18 03:58:06;;;;;;;6.90;2.55;;;;;;;19.45;50.99;101283.84;4130670;28;20145;-71
2022/07/18 04:00:10;;;;;;;4.60;1.98;;;;;;;19.40;51.94;101283.91;4131808;28;20101;-70
2022/07/18 04:02:15;;;;;;;4.55;2.10;;;;;;;19.38;51.60;101283.06;4129963;28;20043;-69
2022/07/18 04:04:20;;;;;;;5.40;2.20;;;;;;;19.40;51.71;101283.91;4131826;28;20061;-69
2022/07/18 04:06:24;;;;;;;4.35;2.10;;;;;;;19.37;50.64;101281.28;4131849;28;20038;-69
2022/07/18 04:08:27;;;;;;;9.13;2.50;;;;;;;19.39;50.35;101286.56;4131823;28;20121;-69
2022/07/18 04:10:30;;;;;;;7.90;1.98;;;;;;;19.41;49.23;101287.44;4131749;28;20038;-69
2022/07/18 04:12:33;;;;;;;6.22;2.53;;;;;;;19.39;48.13;101284.81;4130947;28;20039;-69
2022/07/18 04:14:36;;;;;;;6.25;2.60;;;;;;;19.38;47.88;101285.69;4131688;28;20043;-69
2022/07/18 04:16:39;;;;;;;5.18;2.10;;;;;;;19.43;47.75;101286.50;4131317;28;20038;-69
2022/07/18 04:18:42;;;;;;;6.43;2.20;;;;;;;19.46;47.19;101285.63;4131635;28;20038;-69
2022/07/18 04:20:45;;;;;;;6.93;2.10;;;;;;;19.43;46.67;101283.88;4131594;28;20038;-69
2022/07/18 04:22:52;;;;;;;5.35;2.15;;;;;;;19.48;46.61;101294.41;4131002;28;20038;-69
2022/07/18 04:24:54;;;;;;;5.30;2.20;;;;;;;19.45;46.22;101289.13;4130573;28;20070;-69
2022/07/18 04:26:57;;;;;;;8.70;2.22;;;;;;;19.46;46.32;101296.16;4131563;28;20042;-69
2022/07/18 04:29:00;;;;;;;7.25;2.17;;;;;;;19.42;45.48;101300.59;4130357;28;20042;-69
2022/07/18 04:31:03;;;;;;;5.32;1.65;;;;;;;19.43;45.44;101296.19;4130377;28;20042;-69
2022/07/18 04:33:08;;;;;;;5.53;2.28;;;;;;;19.46;45.23;101298.78;4130656;28;20050;-69
2022/07/18 04:35:11;;;;;;;4.30;2.45;;;;;;;19.48;44.99;101295.25;4130319;28;20056;-69
2022/07/18 04:37:14;;;;;;;7.18;2.40;;;;;;;19.51;44.63;101297.00;4131652;28;20047;-69
2022/07/18 04:39:19;;;;;;;6.00;2.60;;;;;;;19.52;44.54;101296.09;4131557;28;20049;-69
2022/07/18 04:41:24;;;;;;;7.07;1.95;;;;;;;19.51;44.14;101292.59;4114161;28;20480;-69
2022/07/18 04:43:27;;;;;;;11.30;2.80;;;;;;;19.52;44.42;101291.72;4129761;28;20125;-70
2022/07/18 04:45:30;;;;;;;6.47;2.33;;;;;;;19.50;44.52;101298.75;4131595;28;20043;-70
2022/07/18 04:47:33;;;;;;;4.90;2.08;;;;;;;19.53;43.92;101287.31;4131578;28;20039;-70
2022/07/18 04:49:36;;;;;;;6.03;2.28;;;;;;;19.58;43.77;101284.63;4131469;28;20050;-70
2022/07/18 04:51:39;;;;;;;9.05;2.40;;;;;;;19.62;43.76;101296.88;4130732;28;20048;-69
2022/07/18 04:53:42;;;;;;;5.68;2.38;;;;;;;19.63;43.75;101290.75;4131195;28;20571;-69
2022/07/18 04:55:46;;;;;;;8.63;2.45;;;;;;;19.66;44.03;101298.63;4130040;28;20431;-69
2022/07/18 04:57:49;;;;;;;5.97;2.25;;;;;;;19.62;44.22;101291.63;4130079;28;20039;-70
2022/07/18 04:59:52;;;;;;;4.90;1.83;;;;;;;19.62;44.05;101300.41;4130278;28;20038;-70
2022/07/18 05:01:55;;;;;;;7.68;2.25;;;;;;;19.65;44.01;101299.50;4130485;28;20034;-70
2022/07/18 05:03:58;;;;;;;6.78;2.63;;;;;;;19.69;43.78;101296.81;4130023;28;20125;-70
2022/07/18 05:06:01;;;;;;;5.50;2.30;;;;;;;19.72;44.11;101303.81;4131339;28;20054;-70
2022/07/18 05:08:07;;;;;;;6.88;2.75;;;;;;;19.75;44.20;101303.78;4130065;28;20046;-70
2022/07/18 05:10:11;;;;;;;11.20;2.50;;;;;;;19.76;43.65;101305.53;4130101;28;20058;-70
2022/07/18 05:12:16;;;;;;;4.88;2.13;;;;;;;19.79;44.31;101304.69;4130502;28;20049;-70
2022/07/18 05:14:19;;;;;;;7.63;2.25;;;;;;;19.79;44.95;101308.19;4146116;28;20044;-70
2022/07/18 05:16:21;;;;;;;6.20;2.00;;;;;;;19.83;45.18;101307.25;4131176;28;20046;-70
2022/07/18 05:18:24;;;;;;;5.60;2.75;;;;;;;19.90;45.34;101307.19;4131237;28;20038;-68
2022/07/18 05:20:28;;;;;;;4.65;1.98;;;;;;;19.97;45.14;101300.94;4131166;28;20038;-70
2022/07/18 05:22:30;;;;;;;6.07;2.33;;;;;;;20.01;44.75;101305.31;4130492;28;20500;-70
2022/07/18 05:24:33;;;;;;;5.53;2.08;;;;;;;20.06;44.57;101311.41;4131060;28;20097;-70
2022/07/18 05:26:36;;;;;;;11.32;2.05;;;;;;;20.17;45.15;101311.28;4131306;28;20038;-70
2022/07/18 05:28:41;;;;;;;6.75;2.28;;;;;;;20.23;44.95;101306.78;4131053;28;20034;-70
2022/07/18 05:30:44;;;;;;;5.25;2.20;;;;;;;20.26;44.70;101305.03;4132827;28;20044;-70
2022/07/18 05:32:47;;;;;;;9.98;2.70;;;;;;;20.29;44.40;101310.25;4131936;28;20050;-71
2022/07/18 05:34:50;;;;;;;5.05;2.20;;;;;;;20.38;44.33;101307.50;4134163;28;20042;-70
2022/07/18 05:36:54;;;;;;;7.93;2.60;;;;;;;20.45;44.32;101311.81;4134042;28;20041;-70
2022/07/18 05:38:57;;;;;;;9.27;2.60;;;;;;;20.57;44.15;101316.03;4132804;28;20129;-70
2022/07/18 05:41:00;;;;;;;6.28;2.38;;;;;;;20.69;44.48;101304.47;4132743;28;20129;-70
2022/07/18 05:43:03;;;;;;;8.63;2.00;;;;;;;20.75;44.41;101309.69;4131926;28;20190;-70
2022/07/18 05:45:09;;;;;;;10.40;3.13;;;;;;;20.87;44.39;101314.78;4134218;28;20038;-70
2022/07/18 05:47:13;;;;;;;9.60;2.75;;;;;;;20.96;44.21;101307.63;4133801;28;20411;-70
2022/07/18 05:49:16;;;;;;;9.32;2.65;;;;;;;21.07;44.14;101308.28;4133703;28;20045;-70
2022/07/18 05:51:20;;;;;;;11.85;2.90;;;;;;;21.16;43.82;101309.91;4132486;28;20046;-70
2022/07/18 05:53:23;;;;;;;10.98;2.80;;;;;;;21.17;43.53;101304.59;4133135;28;20035;-70
2022/07/18 05:55:26;;;;;;;11.50;3.35;;;;;;;21.24;43.87;101302.75;4133639;28;20038;-70
2022/07/18 05:57:29;;;;;;;13.65;3.47;;;;;;;21.33;44.42;101301.72;4133660;28;20048;-70
2022/07/18 05:59:32;;;;;;;10.63;3.10;;;;;;;21.38;43.95;101300.75;4132578;28;20046;-70
2022/07/18 06:01:36;;;;;;;9.25;2.85;;;;;;;21.41;44.10;101305.97;4132075;28;20052;-70
2022/07/18 06:03:39;;;;;;;21.23;3.90;;;;;;;;;;4133071;28;20108;-70
2022/07/18 06:05:42;;;;;;;14.15;3.47;;;;;;;21.44;43.81;101299.78;4133503;28;20048;-70
2022/07/18 06:07:45;;;;;;;14.35;3.72;;;;;;;21.48;43.25;101298.81;4133557;28;20042;-70
2022/07/18 06:09:48;;;;;;;11.15;2.60;;;;;;;21.52;43.15;101303.16;4133452;28;20065;-70
2022/07/18 06:11:51;;;;;;;8.13;2.75;;;;;;;21.57;43.88;101301.31;4132725;28;20038;-70
2022/07/18 06:13:54;;;;;;;7.22;2.47;;;;;;;21.61;43.37;101297.72;4133216;28;20038;-70
2022/07/18 06:15:57;;;;;;;13.82;3.35;;;;;;;21.65;42.83;101303.81;4133399;28;20042;-70
2022/07/18 06:18:01;;;;;;;9.05;3.17;;;;;;;21.69;42.50;101302.00;4133216;28;20069;-70
2022/07/18 06:20:07;;;;;;;10.32;3.13;;;;;;;21.67;42.61;101298.50;4132182;28;20042;-70
2022/07/18 06:22:10;;;;;;;12.32;3.28;;;;;;;21.69;41.44;101307.31;4131456;28;20582;-72
2022/07/18 06:24:14;;;;;;;11.68;4.00;;;;;;;21.86;41.37;101302.56;4133162;28;20065;-70
2022/07/18 06:26:16;;;;;;;9.75;3.80;;;;;;;21.97;40.28;101289.97;4133200;28;20042;-70
2022/07/18 06:28:19;;;;;;;13.70;3.40;;;;;;;21.96;41.00;101297.94;4133220;28;20277;-70
2022/07/18 06:30:23;;;;;;;12.90;3.50;;;;;;;22.05;40.43;101294.22;4133162;28;20038;-69
2022/07/18 06:32:26;;;;;;;12.48;4.57;;;;;;;22.18;40.52;101298.41;4132356;28;20044;-70
2022/07/18 06:34:30;;;;;;;8.00;2.92;;;;;;;22.13;40.55;101298.47;4131675;28;20046;-70
2022/07/18 06:36:33;;;;;;;15.23;3.17;;;;;;;22.17;40.05;101291.34;4133194;28;20069;-70
2022/07/18 06:38:36;;;;;;;7.43;4.05;;;;;;;22.22;40.10;101297.41;4131698;28;20137;-70
2022/07/18 06:40:39;;;;;;;10.70;4.22;;;;;;;22.31;39.79;101293.69;4132808;28;20126;-71
2022/07/18 06:42:42;;;;;;;13.55;4.10;;;;;;;22.41;39.93;101294.41;4132188;28;20452;-70
2022/07/18 06:44:46;;;;;;;11.52;3.17;;;;;;;22.43;39.41;101293.47;4131587;28;20048;-69
2022/07/18 06:46:49;;;;;;;15.52;3.55;;;;;;;22.53;38.72;101291.50;4131797;28;20042;-69
2022/07/18 06:48:52;;;;;;;13.52;4.13;;;;;;;22.56;38.96;101294.09;4132784;28;20121;-70
2022/07/18 06:50:56;;;;;;;9.77;3.70;;;;;;;22.62;39.47;101291.28;4132802;28;20042;-69
2022/07/18 06:52:59;;;;;;;11.73;3.83;;;;;;;22.63;39.39;101286.84;4130816;28;20046;-70
2022/07/18 06:55:01;;;;;;;15.20;3.63;;;;;;;22.74;39.11;101289.28;4132714;28;20038;-70
2022/07/18 06:57:06;;;;;;;10.70;3.40;;;;;;;22.73;39.23;101287.53;4131325;28;20046;-70
2022/07/18 06:59:09;;;;;;;12.63;3.55;;;;;;;22.74;39.46;101286.63;4132622;28;20108;-69
2022/07/18 07:01:12;;;;;;;16.90;3.55;;;;;;;22.87;39.46;101288.06;4132561;28;20510;-71
2022/07/18 07:03:15;;;;;;;11.60;2.97;;;;;;;22.89;38.96;101288.03;4130672;28;20092;-71
2022/07/18 07:05:20;;;;;;;13.90;4.10;;;;;;;23.06;38.80;101287.63;4132563;28;20038;-71
2022/07/18 07:07:25;;;;;;;23.73;5.85;;;;;;;23.13;38.06;101283.94;4132553;28;20523;-71
2022/07/18 07:09:28;;;;;;;24.77;5.05;;;;;;;23.09;38.25;101290.22;4131336;28;20034;-72
2022/07/18 07:11:30;;;;;;;23.38;4.93;;;;;;;23.05;38.42;101280.56;4132483;28;20483;-71
2022/07/18 07:13:34;;;;;;;14.80;4.65;;;;;;;23.02;38.09;101282.38;4131785;28;20049;-71
2022/07/18 07:15:37;;;;;;;20.08;4.38;;;;;;;23.19;36.98;101281.16;4131148;28;20039;-71
2022/07/18 07:17:40;;;;;;;15.68;4.15;;;;;;;23.17;37.69;101289.13;4131006;28;20046;-71
2022/07/18 07:19:43;;;;;;;19.10;4.50;;;;;;;23.27;37.29;101287.09;4131153;28;20473;-70
2022/07/18 07:21:45;;;;;;;11.48;3.72;;;;;;;23.21;37.17;101287.28;4131845;28;20039;-70
2022/07/18 07:23:50;;;;;;;15.13;4.30;;;;;;;23.30;36.81;101292.31;4131130;28;20132;-71
2022/07/18 07:25:52;;;;;;;21.80;4.60;;;;;;;23.43;36.96;101289.38;4131018;28;20042;-69
2022/07/18 07:27:55;;;;;;;20.17;4.00;;;;;;;23.42;37.12;101291.16;4132236;28;20464;-70
2022/07/18 07:29:58;;;;;;;21.27;5.05;;;;;;;23.56;36.63;101296.09;4132245;28;20497;-70
2022/07/18 07:32:01;;;;;;;12.63;4.18;;;;;;;23.47;36.99;101293.69;4131381;28;20046;-71
2022/07/18 07:34:04;;;;;;;24.85;5.72;;;;;;;23.56;36.93;101293.44;4132051;28;20050;-72
2022/07/18 07:36:08;;;;;;;18.35;4.22;;;;;;;23.62;36.77;101298.59;4132027;28;20409;-71
2022/07/18 07:38:17;;;;;;;12.75;3.85;;;;;;;23.66;37.09;101289.63;4132027;28;20053;-71
2022/07/18 07:40:24;;;;;;;36.92;6.68;;;;;;;23.86;36.52;101286.47;4132419;28;20042;-71
2022/07/18 07:42:27;;;;;;;22.30;4.93;;;;;;;23.93;36.22;101295.09;4130167;28;20050;-71
2022/07/18 07:44:30;;;;;;;19.13;5.07;;;;;;;24.03;35.84;101282.44;4130720;28;20408;-70
2022/07/18 07:46:33;;;;;;;15.93;4.57;;;;;;;23.99;35.55;101284.34;4114826;28;20360;-71
2022/07/18 07:48:35;;;;;;;16.02;4.05;;;;;;;23.95;36.12;101277.38;4130999;28;20038;-71
2022/07/18 07:50:38;;;;;;;16.30;4.13;;;;;;;24.01;36.60;101279.84;4130930;28;20516;-70
2022/07/18 07:52:41;;;;;;;14.50;4.13;;;;;;;24.09;36.77;101276.09;4130681;28;20046;-71
2022/07/18 07:54:45;;;;;;;12.15;4.22;;;;;;;24.10;36.83;101285.81;4131879;28;20121;-71
2022/07/18 07:56:49;;;;;;;10.50;3.42;;;;;;;24.20;36.70;101285.47;4131924;28;20042;-71
2022/07/18 07:58:52;;;;;;;14.73;4.45;;;;;;;24.27;36.14;101270.25;4131805;28;20105;-71
2022/07/18 08:00:55;;;;;;;15.52;3.78;;;;;;;24.34;36.52;101277.13;4130611;28;20125;-71
2022/07/18 08:03:00;;;;;;;12.98;3.50;;;;;;;24.44;36.13;101277.69;4129722;28;20034;-71
2022/07/18 08:05:04;;;;;;;20.10;4.32;;;;;;;24.54;36.50;101268.50;4114397;28;20034;-71
2022/07/18 08:07:08;;;;;;;8.68;3.85;;;;;;;24.59;34.75;101271.06;4131772;28;20044;-71
2022/07/18 08:09:11;;;;;;;19.25;4.53;;;;;;;24.76;34.22;101270.53;4131857;28;20504;-71
2022/07/18 08:11:14;;;;;;;12.38;3.38;;;;;;;24.80;35.10;101268.66;4130398;28;20137;-71
2022/07/18 08:13:18;;;;;;;9.30;3.53;;;;;;;24.86;34.79;101269.31;4129620;28;20062;-71
2022/07/18 08:15:22;;;;;;;12.38;3.63;;;;;;;24.94;34.90;101266.41;4131567;28;20297;-70
2022/07/18 08:17:24;;;;;;;12.52;3.92;;;;;;;25.03;34.51;101259.91;4131601;28;20038;-71
2022/07/18 08:19:27;;;;;;;26.20;4.32;;;;;;;25.25;32.48;101260.06;4131580;28;20451;-72
2022/07/18 08:21:30;;;;;;;14.02;3.20;;;;;;;25.31;33.06;101265.19;4130355;28;20048;-71
2022/07/18 08:23:35;;;;;;;10.93;3.30;;;;;;;25.31;33.54;101270.50;4131380;28;20057;-71
2022/07/18 08:25:41;;;;;;;9.43;3.33;;;;;;;25.34;33.81;101265.09;4131503;28;20141;-71
2022/07/18 08:27:44;;;;;;;8.10;3.05;;;;;;;25.31;32.99;101262.53;4130297;28;20054;-71
2022/07/18 08:29:48;;;;;;;13.48;3.40;;;;;;;25.35;32.89;101258.84;4130399;28;20436;-71
2022/07/18 08:32:09;;;;;;;7.47;2.75;;;;;;;25.60;30.82;101253.50;4130839;28;20046;-71
2022/07/18 08:34:13;;;;;;;6.85;3.10;;;;;;;25.79;30.67;101256.38;4131468;28;20052;-71
2022/07/18 08:36:16;;;;;;;8.50;3.05;;;;;;;25.71;31.08;101253.09;4131484;28;20076;-71
2022/07/18 08:38:19;;;;;;;8.18;3.38;;;;;;;25.84;31.75;101252.66;4131510;28;20042;-71
2022/07/18 08:40:22;;;;;;;14.90;3.30;;;;;;;26.03;29.97;101250.22;4131529;28;20066;-71
2022/07/18 08:42:26;;;;;;;4.95;1.92;;;;;;;26.00;30.01;101253.88;4130644;28;20049;-71
2022/07/18 08:44:29;;;;;;;7.20;2.25;;;;;;;26.11;28.60;101256.13;4130145;28;20038;-71
2022/07/18 08:46:35;;;;;;;8.25;2.30;;;;;;;26.17;29.70;101247.91;4131438;28;20137;-71
2022/07/18 08:48:40;;;;;;;6.53;2.47;;;;;;;26.22;29.64;101248.56;4131477;28;20479;-71
2022/07/18 08:50:44;;;;;;;11.32;2.33;;;;;;;26.29;29.36;101249.22;4130067;28;20141;-70
2022/07/18 08:52:47;;;;;;;4.93;2.00;;;;;;;26.35;27.72;101242.78;4129389;28;20137;-71
2022/07/18 08:54:56;;;;;;;5.30;1.77;;;;;;;26.33;29.11;101250.84;4131425;28;20432;-71
2022/07/18 08:57:01;;;;;;;8.98;2.83;;;;;;;26.43;29.62;101240.66;4113960;28;20090;-72
2022/07/18 08:59:05;;;;;;;4.38;1.98;;;;;;;26.54;28.80;101246.44;4130186;28;20042;-71
2022/07/18 09:01:08;;;;;;;5.25;1.98;;;;;;;26.55;28.13;101242.84;4130125;28;20073;-71
2022/07/18 09:03:13;;;;;;;3.08;1.60;;;;;;;26.65;27.85;101246.03;4129406;28;20038;-71
2022/07/18 09:05:20;;;;;;;8.90;2.20;;;;;;;26.79;27.86;101241.00;4134435;28;20039;-71
2022/07/18 09:07:38;;;;;;;6.32;2.05;;;;;;;26.99;25.59;101244.66;4134353;28;20101;-72
2022/07/18 09:09:53;;;;;;;6.72;1.70;;;;;;;27.07;25.60;101247.00;4134460;28;20049;-71
2022/07/18 09:11:57;;;;;;;6.13;1.85;;;;;;;27.01;26.28;101237.44;4132664;28;20053;-71
2022/07/18 09:14:00;;;;;;;;;;;;;;;26.99;27.45;101234.84;4133166;28;20061;-71
2022/07/18 09:16:05;;;;;;;5.28;2.17;;;;;;;27.10;27.21;101238.84;4134209;28;19972;-73
2022/07/18 09:18:08;;;;;;;11.52;1.92;;;;;;;27.43;25.28;101239.22;4134527;28;20038;-73
2022/07/18 09:20:32;;;;;;;6.15;1.60;;;;;;;27.30;25.59;101238.84;4134313;28;20078;-71
2022/07/18 09:22:38;;;;;;;5.82;2.00;;;;;;;27.41;26.42;101234.88;4133444;28;20133;-71
2022/07/18 09:25:02;;;;;;;4.10;1.70;;;;;;;27.49;25.12;101238.09;4134096;28;20039;-71
2022/07/18 09:27:23;;;;;;;4.32;1.52;;;;;;;27.58;24.73;101234.13;4132956;28;20121;-72
2022/07/18 09:29:26;;;;;;;5.07;1.30;;;;;;;27.61;24.75;101223.31;4134094;28;20042;-72
2022/07/18 09:31:32;;;;;;;3.15;1.55;;;;;;;27.64;24.59;101237.41;4132795;28;20089;-71
2022/07/18 09:33:36;;;;;;;3.00;1.45;;;;;;;27.68;24.78;101228.31;4133517;28;20038;-72
2022/07/18 09:35:46;;;;;;;7.33;1.80;;;;;;;27.86;25.31;101231.06;4134211;28;20069;-70
2022/07/18 09:37:55;;;;;;;5.53;1.48;;;;;;;27.97;24.77;101227.91;4134108;28;20038;-71